Aérodrome :
LOGIN :

S'inscrire | Disclaimer

   EN    FR    IT 

 










Légende :    VFR   VFR Marginal   IFR   IFR Intensif   IFR Très Intensif
Visi : 
Plafond : 
>= 8 km
>= 3000ft
5 à 8 km
1000 à 3000 ft
1500m à 5 km
500 à 1000 ft
800 à 1500m
200 à 500 ft
< 800m
< 200 ft
Symboles :   Orages  Brouillard  Fortes neiges  Fortes précipitations  Vent > 20 kt
SIGMETs :   Divers  Orages  Givrage  Turbulence  Onde Orograph.  Cendres Volcan.







- Altitude de l'aérodrome : 157 ft
- Code IATA : LIL
- Voir les cartes d'approche


LFQQ - Lille Lesquin

DERNIER METAR :
  • 251730Z AUTO 03009KT 330V060 CAVOK 24/09 Q1024 NOSIG

METARs EXPIRÉS :
  • 251700Z AUTO 05009KT 010V070 CAVOK 24/08 Q1024 NOSIG
  • 251630Z AUTO 02012KT 340V050 CAVOK 24/07 Q1024 NOSIG
  • 251600Z AUTO 35010KT 330V040 CAVOK 25/08 Q1025 NOSIG
  • 251530Z AUTO 01008KT 330V050 CAVOK 24/09 Q1025 NOSIG
  • 251500Z AUTO VRB08KT CAVOK 24/09 Q1025 NOSIG

TAF TAF LFQQ
Valide du 25 à 18h jusqu'au 27 à 00h UTC


251700Z 2518/2624 03009KT CAVOK
PROB30
TEMPO 2604/2607 BKN003
ATIS : +33 3 20 16 19 54
Pas de NOTAMs connus pour ce terrain.



MET'MAP, la Météo Aéronautique d'un coup d'oeil ! - Copyright ORBIFLY Décembre 2007 - Disclaimer

ORBIFLY MET'MAP TEAM :

Programmation & Développement : Alexandra Zaïnal
Conception & Développement : Baudouin d'Aumeries
Co-Programmation & Développement : Marc-Olivier Méhu
Soutien technique & logistique : Manuel Goepfert

Contact : metmap@orbifly.com




SOURCES & CREDITS :

   NOAA